sensor_id;sensor_type;location;lat;lon;timestamp;temperature;humidity
54082;DHT22;39986;50.770;0.266;2023-04-29T00:00:00;11.80;99.90
54082;DHT22;39986;50.770;0.266;2023-04-29T00:02:26;11.80;99.90
54082;DHT22;39986;50.770;0.266;2023-04-29T00:04:52;11.80;99.90
54082;DHT22;39986;50.770;0.266;2023-04-29T00:07:18;11.80;99.90
54082;DHT22;39986;50.770;0.266;2023-04-29T00:09:44;11.80;99.90
54082;DHT22;39986;50.770;0.266;2023-04-29T00:12:09;11.70;99.90
54082;DHT22;39986;50.770;0.266;2023-04-29T00:14:35;11.70;99.90
54082;DHT22;39986;50.770;0.266;2023-04-29T00:17:01;11.70;99.90
54082;DHT22;39986;50.770;0.266;2023-04-29T00:19:26;11.70;99.90
54082;DHT22;39986;50.770;0.266;2023-04-29T00:21:53;11.70;99.90
54082;DHT22;39986;50.770;0.266;2023-04-29T00:24:19;11.70;99.90
54082;DHT22;39986;50.770;0.266;2023-04-29T00:26:44;11.70;99.90
54082;DHT22;39986;50.770;0.266;2023-04-29T00:29:10;11.70;99.90
54082;DHT22;39986;50.770;0.266;2023-04-29T00:31:36;11.70;99.90
54082;DHT22;39986;50.770;0.266;2023-04-29T00:34:02;11.70;99.90
54082;DHT22;39986;50.770;0.266;2023-04-29T00:36:27;11.60;99.90
54082;DHT22;39986;50.770;0.266;2023-04-29T00:38:53;11.60;99.90
54082;DHT22;39986;50.770;0.266;2023-04-29T00:41:19;11.60;99.90
54082;DHT22;39986;50.770;0.266;2023-04-29T00:43:45;11.50;99.90
54082;DHT22;39986;50.770;0.266;2023-04-29T00:46:16;11.50;99.90
54082;DHT22;39986;50.770;0.266;2023-04-29T00:48:41;11.40;99.90
54082;DHT22;39986;50.770;0.266;2023-04-29T00:51:07;11.40;99.90
54082;DHT22;39986;50.770;0.266;2023-04-29T00:53:32;11.40;99.90
54082;DHT22;39986;50.770;0.266;2023-04-29T00:55:59;11.30;99.90
54082;DHT22;39986;50.770;0.266;2023-04-29T00:58:25;11.20;99.90
54082;DHT22;39986;50.770;0.266;2023-04-29T01:00:58;11.10;99.90
54082;DHT22;39986;50.770;0.266;2023-04-29T01:03:29;11.10;99.90
54082;DHT22;39986;50.770;0.266;2023-04-29T01:11:17;11.00;99.90
54082;DHT22;39986;50.770;0.266;2023-04-29T01:16:18;11.00;99.90
54082;DHT22;39986;50.770;0.266;2023-04-29T01:18:48;11.00;99.90
54082;DHT22;39986;50.770;0.266;2023-04-29T01:21:14;11.00;99.90
54082;DHT22;39986;50.770;0.266;2023-04-29T01:23:40;10.90;99.90
54082;DHT22;39986;50.770;0.266;2023-04-29T01:26:05;10.90;99.90
54082;DHT22;39986;50.770;0.266;2023-04-29T01:36:30;10.70;99.90
54082;DHT22;39986;50.770;0.266;2023-04-29T01:41:43;10.60;99.90
54082;DHT22;39986;50.770;0.266;2023-04-29T01:44:12;10.70;99.90
54082;DHT22;39986;50.770;0.266;2023-04-29T01:46:39;10.60;99.90
54082;DHT22;39986;50.770;0.266;2023-04-29T01:49:06;10.70;99.90
54082;DHT22;39986;50.770;0.266;2023-04-29T01:51:31;10.70;99.90
54082;DHT22;39986;50.770;0.266;2023-04-29T01:53:58;10.70;99.90
54082;DHT22;39986;50.770;0.266;2023-04-29T01:56:24;10.70;99.90
54082;DHT22;39986;50.770;0.266;2023-04-29T01:58:49;10.60;99.90
54082;DHT22;39986;50.770;0.266;2023-04-29T02:01:15;10.60;99.90
54082;DHT22;39986;50.770;0.266;2023-04-29T02:03:40;10.60;99.90
54082;DHT22;39986;50.770;0.266;2023-04-29T02:06:06;10.50;99.90
54082;DHT22;39986;50.770;0.266;2023-04-29T02:08:31;10.50;99.90
54082;DHT22;39986;50.770;0.266;2023-04-29T02:10:57;10.40;99.90
54082;DHT22;39986;50.770;0.266;2023-04-29T02:13:32;10.30;99.90
54082;DHT22;39986;50.770;0.266;2023-04-29T02:16:05;10.30;99.90
54082;DHT22;39986;50.770;0.266;2023-04-29T02:18:31;10.30;99.90
54082;DHT22;39986;50.770;0.266;2023-04-29T02:20:59;10.20;99.90
54082;DHT22;39986;50.770;0.266;2023-04-29T02:23:26;10.30;99.90
54082;DHT22;39986;50.770;0.266;2023-04-29T02:25:51;10.20;99.90
54082;DHT22;39986;50.770;0.266;2023-04-29T02:28:17;10.30;99.90
54082;DHT22;39986;50.770;0.266;2023-04-29T02:30:43;10.20;99.90
54082;DHT22;39986;50.770;0.266;2023-04-29T02:33:08;10.20;99.90
54082;DHT22;39986;50.770;0.266;2023-04-29T02:35:34;10.20;99.90
54082;DHT22;39986;50.770;0.266;2023-04-29T02:38:00;10.20;99.90
54082;DHT22;39986;50.770;0.266;2023-04-29T02:40:26;10.20;99.90
54082;DHT22;39986;50.770;0.266;2023-04-29T02:42:51;10.20;99.90
54082;DHT22;39986;50.770;0.266;2023-04-29T02:45:17;10.20;99.90
54082;DHT22;39986;50.770;0.266;2023-04-29T02:47:42;10.10;99.90
54082;DHT22;39986;50.770;0.266;2023-04-29T02:50:08;10.20;99.90
54082;DHT22;39986;50.770;0.266;2023-04-29T02:52:34;10.10;99.90
54082;DHT22;39986;50.770;0.266;2023-04-29T02:55:00;10.10;99.90
54082;DHT22;39986;50.770;0.266;2023-04-29T02:57:26;10.10;99.90
54082;DHT22;39986;50.770;0.266;2023-04-29T02:59:51;10.20;99.90
54082;DHT22;39986;50.770;0.266;2023-04-29T03:02:17;10.10;99.90
54082;DHT22;39986;50.770;0.266;2023-04-29T03:04:42;10.10;99.90
54082;DHT22;39986;50.770;0.266;2023-04-29T03:07:08;9.90;99.90
54082;DHT22;39986;50.770;0.266;2023-04-29T03:09:33;9.90;99.90
54082;DHT22;39986;50.770;0.266;2023-04-29T03:11:59;9.90;99.90
54082;DHT22;39986;50.770;0.266;2023-04-29T03:14:25;9.90;99.90
54082;DHT22;39986;50.770;0.266;2023-04-29T03:16:51;9.90;99.90
54082;DHT22;39986;50.770;0.266;2023-04-29T03:19:16;9.90;99.90
54082;DHT22;39986;50.770;0.266;2023-04-29T03:21:42;9.90;99.90
54082;DHT22;39986;50.770;0.266;2023-04-29T03:24:08;9.90;99.90
54082;DHT22;39986;50.770;0.266;2023-04-29T03:26:34;9.90;99.90
54082;DHT22;39986;50.770;0.266;2023-04-29T03:28:59;9.80;99.90
54082;DHT22;39986;50.770;0.266;2023-04-29T03:31:25;9.80;99.90
54082;DHT22;39986;50.770;0.266;2023-04-29T03:33:51;9.80;99.90
54082;DHT22;39986;50.770;0.266;2023-04-29T03:36:17;9.80;99.90
54082;DHT22;39986;50.770;0.266;2023-04-29T03:38:43;9.70;99.90
54082;DHT22;39986;50.770;0.266;2023-04-29T03:41:08;9.60;99.90
54082;DHT22;39986;50.770;0.266;2023-04-29T03:43:34;9.60;99.90
54082;DHT22;39986;50.770;0.266;2023-04-29T03:46:00;9.60;99.90
54082;DHT22;39986;50.770;0.266;2023-04-29T03:48:25;9.60;99.90
54082;DHT22;39986;50.770;0.266;2023-04-29T03:50:51;9.60;99.90
54082;DHT22;39986;50.770;0.266;2023-04-29T03:53:16;9.60;99.90
54082;DHT22;39986;50.770;0.266;2023-04-29T03:55:42;9.50;99.90
54082;DHT22;39986;50.770;0.266;2023-04-29T03:58:08;9.50;99.90
54082;DHT22;39986;50.770;0.266;2023-04-29T04:00:33;9.50;99.90
54082;DHT22;39986;50.770;0.266;2023-04-29T04:02:59;9.40;99.90
54082;DHT22;39986;50.770;0.266;2023-04-29T04:05:24;9.50;99.90
54082;DHT22;39986;50.770;0.266;2023-04-29T04:07:51;9.40;99.90
54082;DHT22;39986;50.770;0.266;2023-04-29T04:10:17;9.40;99.90
54082;DHT22;39986;50.770;0.266;2023-04-29T04:12:42;9.40;99.90
54082;DHT22;39986;50.770;0.266;2023-04-29T04:15:08;9.30;99.90
54082;DHT22;39986;50.770;0.266;2023-04-29T04:17:34;9.30;99.90
54082;DHT22;39986;50.770;0.266;2023-04-29T04:19:59;9.30;99.90
54082;DHT22;39986;50.770;0.266;2023-04-29T04:22:25;9.30;99.90
54082;DHT22;39986;50.770;0.266;2023-04-29T04:24:53;9.30;99.90
54082;DHT22;39986;50.770;0.266;2023-04-29T04:27:18;9.30;99.90
54082;DHT22;39986;50.770;0.266;2023-04-29T04:29:44;9.30;99.90
54082;DHT22;39986;50.770;0.266;2023-04-29T04:32:09;9.20;99.90
54082;DHT22;39986;50.770;0.266;2023-04-29T04:34:35;9.20;99.90
54082;DHT22;39986;50.770;0.266;2023-04-29T04:37:01;9.10;99.90
54082;DHT22;39986;50.770;0.266;2023-04-29T04:39:26;9.10;99.90
54082;DHT22;39986;50.770;0.266;2023-04-29T04:41:52;9.10;99.90
54082;DHT22;39986;50.770;0.266;2023-04-29T04:44:18;9.10;99.90
54082;DHT22;39986;50.770;0.266;2023-04-29T04:46:43;9.00;99.90
54082;DHT22;39986;50.770;0.266;2023-04-29T04:49:09;9.10;99.90
54082;DHT22;39986;50.770;0.266;2023-04-29T04:51:34;9.10;99.90
54082;DHT22;39986;50.770;0.266;2023-04-29T04:54:00;9.00;99.90
54082;DHT22;39986;50.770;0.266;2023-04-29T04:56:25;9.10;99.90
54082;DHT22;39986;50.770;0.266;2023-04-29T04:58:51;9.10;99.90
54082;DHT22;39986;50.770;0.266;2023-04-29T05:01:16;9.10;99.90
54082;DHT22;39986;50.770;0.266;2023-04-29T05:03:42;9.20;99.90
54082;DHT22;39986;50.770;0.266;2023-04-29T05:06:08;9.20;99.90
54082;DHT22;39986;50.770;0.266;2023-04-29T05:08:33;9.20;99.90
54082;DHT22;39986;50.770;0.266;2023-04-29T05:10:59;9.30;99.90
54082;DHT22;39986;50.770;0.266;2023-04-29T05:13:24;9.40;99.90
54082;DHT22;39986;50.770;0.266;2023-04-29T05:15:50;9.50;99.90
54082;DHT22;39986;50.770;0.266;2023-04-29T05:18:15;9.70;99.90
54082;DHT22;39986;50.770;0.266;2023-04-29T05:20:41;9.70;99.90
54082;DHT22;39986;50.770;0.266;2023-04-29T05:23:06;9.90;99.90
54082;DHT22;39986;50.770;0.266;2023-04-29T05:25:33;10.00;99.90
54082;DHT22;39986;50.770;0.266;2023-04-29T05:27:58;10.00;99.90
54082;DHT22;39986;50.770;0.266;2023-04-29T05:30:24;10.00;99.90
54082;DHT22;39986;50.770;0.266;2023-04-29T05:32:49;10.10;99.90
54082;DHT22;39986;50.770;0.266;2023-04-29T05:35:15;10.20;99.90
54082;DHT22;39986;50.770;0.266;2023-04-29T05:37:41;10.20;99.90
54082;DHT22;39986;50.770;0.266;2023-04-29T05:40:06;10.20;99.90
54082;DHT22;39986;50.770;0.266;2023-04-29T05:42:32;10.20;99.90
54082;DHT22;39986;50.770;0.266;2023-04-29T05:44:58;10.30;99.90
54082;DHT22;39986;50.770;0.266;2023-04-29T05:47:23;10.30;99.90
54082;DHT22;39986;50.770;0.266;2023-04-29T05:49:49;10.50;99.90
54082;DHT22;39986;50.770;0.266;2023-04-29T05:52:14;10.40;99.90
54082;DHT22;39986;50.770;0.266;2023-04-29T05:54:40;10.30;99.90
54082;DHT22;39986;50.770;0.266;2023-04-29T05:57:06;10.40;99.90
54082;DHT22;39986;50.770;0.266;2023-04-29T05:59:32;10.40;99.90
54082;DHT22;39986;50.770;0.266;2023-04-29T06:01:58;10.40;99.90
54082;DHT22;39986;50.770;0.266;2023-04-29T06:04:23;10.30;99.90
54082;DHT22;39986;50.770;0.266;2023-04-29T06:06:53;10.30;99.90
54082;DHT22;39986;50.770;0.266;2023-04-29T06:09:19;10.40;99.90
54082;DHT22;39986;50.770;0.266;2023-04-29T06:11:45;10.30;99.90
54082;DHT22;39986;50.770;0.266;2023-04-29T06:14:11;10.50;99.90
54082;DHT22;39986;50.770;0.266;2023-04-29T06:16:36;10.50;99.90
54082;DHT22;39986;50.770;0.266;2023-04-29T06:19:02;10.40;99.90
54082;DHT22;39986;50.770;0.266;2023-04-29T06:21:27;10.50;99.90
54082;DHT22;39986;50.770;0.266;2023-04-29T06:23:53;10.50;99.90
54082;DHT22;39986;50.770;0.266;2023-04-29T06:26:19;10.40;99.90
54082;DHT22;39986;50.770;0.266;2023-04-29T06:28:45;10.60;99.90
54082;DHT22;39986;50.770;0.266;2023-04-29T06:31:11;10.50;99.90
54082;DHT22;39986;50.770;0.266;2023-04-29T06:33:36;10.70;99.90
54082;DHT22;39986;50.770;0.266;2023-04-29T06:36:02;10.70;99.90
54082;DHT22;39986;50.770;0.266;2023-04-29T06:38:28;10.70;99.90
54082;DHT22;39986;50.770;0.266;2023-04-29T06:40:54;10.80;99.90
54082;DHT22;39986;50.770;0.266;2023-04-29T06:43:20;10.90;99.90
54082;DHT22;39986;50.770;0.266;2023-04-29T06:45:45;10.90;99.90
54082;DHT22;39986;50.770;0.266;2023-04-29T06:48:11;10.90;99.90
54082;DHT22;39986;50.770;0.266;2023-04-29T06:50:36;10.90;99.90
54082;DHT22;39986;50.770;0.266;2023-04-29T06:53:02;10.90;99.90
54082;DHT22;39986;50.770;0.266;2023-04-29T06:55:27;11.00;99.90
54082;DHT22;39986;50.770;0.266;2023-04-29T06:57:53;11.00;99.90
54082;DHT22;39986;50.770;0.266;2023-04-29T07:00:19;10.90;99.90
54082;DHT22;39986;50.770;0.266;2023-04-29T07:02:45;10.90;99.90
54082;DHT22;39986;50.770;0.266;2023-04-29T07:05:11;10.90;99.90
54082;DHT22;39986;50.770;0.266;2023-04-29T07:07:37;11.00;99.90
54082;DHT22;39986;50.770;0.266;2023-04-29T07:10:02;10.90;99.90
54082;DHT22;39986;50.770;0.266;2023-04-29T07:12:28;10.80;99.90
54082;DHT22;39986;50.770;0.266;2023-04-29T07:14:53;10.80;99.90
54082;DHT22;39986;50.770;0.266;2023-04-29T07:17:19;10.90;99.90
54082;DHT22;39986;50.770;0.266;2023-04-29T07:19:45;11.20;99.90
54082;DHT22;39986;50.770;0.266;2023-04-29T07:22:10;11.10;99.90
54082;DHT22;39986;50.770;0.266;2023-04-29T07:24:36;11.30;99.90
54082;DHT22;39986;50.770;0.266;2023-04-29T07:27:02;11.30;99.90
54082;DHT22;39986;50.770;0.266;2023-04-29T07:29:27;11.30;99.90
54082;DHT22;39986;50.770;0.266;2023-04-29T07:31:53;11.30;99.90
54082;DHT22;39986;50.770;0.266;2023-04-29T07:34:18;11.30;99.90
54082;DHT22;39986;50.770;0.266;2023-04-29T07:36:44;11.30;99.90
54082;DHT22;39986;50.770;0.266;2023-04-29T07:39:09;11.20;99.90
54082;DHT22;39986;50.770;0.266;2023-04-29T07:41:36;11.10;99.90
54082;DHT22;39986;50.770;0.266;2023-04-29T07:44:02;11.20;99.90
54082;DHT22;39986;50.770;0.266;2023-04-29T07:46:27;11.30;99.90
54082;DHT22;39986;50.770;0.266;2023-04-29T07:48:53;11.10;99.90
54082;DHT22;39986;50.770;0.266;2023-04-29T07:51:18;11.20;99.90
54082;DHT22;39986;50.770;0.266;2023-04-29T07:53:44;11.40;99.90
54082;DHT22;39986;50.770;0.266;2023-04-29T07:56:09;11.50;99.90
54082;DHT22;39986;50.770;0.266;2023-04-29T07:58:35;11.50;99.90
54082;DHT22;39986;50.770;0.266;2023-04-29T08:01:19;11.50;99.90
54082;DHT22;39986;50.770;0.266;2023-04-29T08:03:45;11.50;99.90
54082;DHT22;39986;50.770;0.266;2023-04-29T08:06:10;11.60;99.90
54082;DHT22;39986;50.770;0.266;2023-04-29T08:08:36;11.70;99.90
54082;DHT22;39986;50.770;0.266;2023-04-29T08:11:01;11.80;99.90
54082;DHT22;39986;50.770;0.266;2023-04-29T08:13:27;12.00;99.90
54082;DHT22;39986;50.770;0.266;2023-04-29T08:15:53;12.20;99.90
54082;DHT22;39986;50.770;0.266;2023-04-29T08:18:18;12.30;99.90
54082;DHT22;39986;50.770;0.266;2023-04-29T08:20:44;12.10;99.90
54082;DHT22;39986;50.770;0.266;2023-04-29T08:23:11;12.10;99.90
54082;DHT22;39986;50.770;0.266;2023-04-29T08:25:39;12.10;99.90
54082;DHT22;39986;50.770;0.266;2023-04-29T08:28:05;12.20;99.90
54082;DHT22;39986;50.770;0.266;2023-04-29T08:30:30;12.40;99.90
54082;DHT22;39986;50.770;0.266;2023-04-29T08:32:56;12.40;99.90
54082;DHT22;39986;50.770;0.266;2023-04-29T08:35:21;12.40;99.90
54082;DHT22;39986;50.770;0.266;2023-04-29T08:37:47;12.60;99.90
54082;DHT22;39986;50.770;0.266;2023-04-29T08:40:13;12.60;99.90
54082;DHT22;39986;50.770;0.266;2023-04-29T08:42:38;12.90;99.90
54082;DHT22;39986;50.770;0.266;2023-04-29T08:45:04;13.00;99.90
54082;DHT22;39986;50.770;0.266;2023-04-29T08:47:32;13.10;99.90
54082;DHT22;39986;50.770;0.266;2023-04-29T08:50:04;13.30;99.90
54082;DHT22;39986;50.770;0.266;2023-04-29T08:52:33;13.60;99.90
54082;DHT22;39986;50.770;0.266;2023-04-29T08:54:58;13.80;99.90
54082;DHT22;39986;50.770;0.266;2023-04-29T08:57:25;13.70;99.90
54082;DHT22;39986;50.770;0.266;2023-04-29T08:59:51;13.70;99.90
54082;DHT22;39986;50.770;0.266;2023-04-29T09:02:16;13.20;99.90
54082;DHT22;39986;50.770;0.266;2023-04-29T09:04:46;12.90;99.90
54082;DHT22;39986;50.770;0.266;2023-04-29T09:07:14;12.80;99.90
54082;DHT22;39986;50.770;0.266;2023-04-29T09:09:40;13.00;99.90
54082;DHT22;39986;50.770;0.266;2023-04-29T09:12:06;13.10;99.90
54082;DHT22;39986;50.770;0.266;2023-04-29T09:14:32;12.90;99.90
54082;DHT22;39986;50.770;0.266;2023-04-29T09:17:00;13.10;99.90
54082;DHT22;39986;50.770;0.266;2023-04-29T09:21:55;13.20;99.90
54082;DHT22;39986;50.770;0.266;2023-04-29T09:24:24;13.30;99.90
54082;DHT22;39986;50.770;0.266;2023-04-29T09:26:50;13.40;99.90
54082;DHT22;39986;50.770;0.266;2023-04-29T09:29:16;13.10;99.90
54082;DHT22;39986;50.770;0.266;2023-04-29T09:31:43;13.20;99.90
54082;DHT22;39986;50.770;0.266;2023-04-29T09:34:09;13.40;99.90
54082;DHT22;39986;50.770;0.266;2023-04-29T09:36:43;13.40;99.90
54082;DHT22;39986;50.770;0.266;2023-04-29T09:39:12;13.30;99.90
54082;DHT22;39986;50.770;0.266;2023-04-29T09:44:17;14.00;99.90
54082;DHT22;39986;50.770;0.266;2023-04-29T09:46:43;13.90;99.90
54082;DHT22;39986;50.770;0.266;2023-04-29T09:49:20;13.70;99.90
54082;DHT22;39986;50.770;0.266;2023-04-29T09:51:55;13.50;99.90
54082;DHT22;39986;50.770;0.266;2023-04-29T09:54:24;13.70;99.90
54082;DHT22;39986;50.770;0.266;2023-04-29T09:56:51;14.00;99.90
54082;DHT22;39986;50.770;0.266;2023-04-29T09:59:20;13.70;99.90
54082;DHT22;39986;50.770;0.266;2023-04-29T10:01:47;13.50;99.90
54082;DHT22;39986;50.770;0.266;2023-04-29T10:04:13;13.70;99.90
54082;DHT22;39986;50.770;0.266;2023-04-29T10:06:40;14.30;99.90
54082;DHT22;39986;50.770;0.266;2023-04-29T10:09:06;14.50;99.90
54082;DHT22;39986;50.770;0.266;2023-04-29T10:11:31;14.20;99.90
54082;DHT22;39986;50.770;0.266;2023-04-29T10:13:57;14.10;99.90
54082;DHT22;39986;50.770;0.266;2023-04-29T10:16:28;14.20;99.90
54082;DHT22;39986;50.770;0.266;2023-04-29T10:18:59;14.40;99.90
54082;DHT22;39986;50.770;0.266;2023-04-29T10:21:28;15.10;99.90
54082;DHT22;39986;50.770;0.266;2023-04-29T10:23:57;15.20;99.90
54082;DHT22;39986;50.770;0.266;2023-04-29T10:26:26;15.30;99.90
54082;DHT22;39986;50.770;0.266;2023-04-29T10:28:54;15.30;99.90
54082;DHT22;39986;50.770;0.266;2023-04-29T10:31:19;15.10;99.90
54082;DHT22;39986;50.770;0.266;2023-04-29T10:33:45;15.40;99.90
54082;DHT22;39986;50.770;0.266;2023-04-29T10:36:12;15.00;99.90
54082;DHT22;39986;50.770;0.266;2023-04-29T10:38:39;14.60;99.90
54082;DHT22;39986;50.770;0.266;2023-04-29T10:41:28;14.50;99.90
54082;DHT22;39986;50.770;0.266;2023-04-29T10:43:53;14.40;99.90
54082;DHT22;39986;50.770;0.266;2023-04-29T10:46:22;14.60;99.90
54082;DHT22;39986;50.770;0.266;2023-04-29T10:48:48;14.40;99.90
54082;DHT22;39986;50.770;0.266;2023-04-29T10:51:48;14.80;99.90
54082;DHT22;39986;50.770;0.266;2023-04-29T10:54:09;14.80;99.90
54082;DHT22;39986;50.770;0.266;2023-04-29T10:56:48;14.50;99.90
54082;DHT22;39986;50.770;0.266;2023-04-29T10:59:41;14.50;99.90
54082;DHT22;39986;50.770;0.266;2023-04-29T11:02:06;14.70;99.90
54082;DHT22;39986;50.770;0.266;2023-04-29T11:04:32;15.40;99.90
54082;DHT22;39986;50.770;0.266;2023-04-29T11:06:57;15.70;99.90
54082;DHT22;39986;50.770;0.266;2023-04-29T11:09:28;15.50;99.90
54082;DHT22;39986;50.770;0.266;2023-04-29T11:14:26;15.90;99.90
54082;DHT22;39986;50.770;0.266;2023-04-29T11:16:52;15.70;99.90
54082;DHT22;39986;50.770;0.266;2023-04-29T11:19:18;15.40;99.90
54082;DHT22;39986;50.770;0.266;2023-04-29T11:21:44;15.90;99.90
54082;DHT22;39986;50.770;0.266;2023-04-29T11:24:11;16.20;99.90
54082;DHT22;39986;50.770;0.266;2023-04-29T11:26:39;17.50;99.90
54082;DHT22;39986;50.770;0.266;2023-04-29T11:29:05;18.60;99.90
54082;DHT22;39986;50.770;0.266;2023-04-29T11:31:34;18.90;99.90
54082;DHT22;39986;50.770;0.266;2023-04-29T11:34:02;20.40;99.90
54082;DHT22;39986;50.770;0.266;2023-04-29T11:36:28;20.20;99.90
54082;DHT22;39986;50.770;0.266;2023-04-29T11:38:56;19.10;99.90
54082;DHT22;39986;50.770;0.266;2023-04-29T11:41:23;18.60;99.90
54082;DHT22;39986;50.770;0.266;2023-04-29T11:43:56;19.60;99.90
54082;DHT22;39986;50.770;0.266;2023-04-29T11:46:24;20.90;99.90
54082;DHT22;39986;50.770;0.266;2023-04-29T11:48:50;21.80;99.90
54082;DHT22;39986;50.770;0.266;2023-04-29T11:51:16;22.20;99.90
54082;DHT22;39986;50.770;0.266;2023-04-29T11:53:42;22.20;99.90
54082;DHT22;39986;50.770;0.266;2023-04-29T11:56:11;20.70;99.90
54082;DHT22;39986;50.770;0.266;2023-04-29T11:58:36;19.90;99.90
54082;DHT22;39986;50.770;0.266;2023-04-29T12:01:03;21.10;99.90
54082;DHT22;39986;50.770;0.266;2023-04-29T12:03:30;21.90;99.90
54082;DHT22;39986;50.770;0.266;2023-04-29T12:05:56;21.90;99.90
54082;DHT22;39986;50.770;0.266;2023-04-29T12:08:21;20.90;99.90
54082;DHT22;39986;50.770;0.266;2023-04-29T12:10:47;20.80;99.90
54082;DHT22;39986;50.770;0.266;2023-04-29T12:13:14;21.30;99.90
54082;DHT22;39986;50.770;0.266;2023-04-29T12:15:39;21.70;99.90
54082;DHT22;39986;50.770;0.266;2023-04-29T12:18:05;22.80;99.90
54082;DHT22;39986;50.770;0.266;2023-04-29T12:20:31;23.10;99.90
54082;DHT22;39986;50.770;0.266;2023-04-29T12:23:09;22.40;99.90
54082;DHT22;39986;50.770;0.266;2023-04-29T12:25:35;22.10;99.90
54082;DHT22;39986;50.770;0.266;2023-04-29T12:28:01;21.60;99.90
54082;DHT22;39986;50.770;0.266;2023-04-29T12:30:28;20.70;99.90
54082;DHT22;39986;50.770;0.266;2023-04-29T12:32:54;19.80;99.90
54082;DHT22;39986;50.770;0.266;2023-04-29T12:35:19;20.30;99.90
54082;DHT22;39986;50.770;0.266;2023-04-29T12:37:49;21.40;99.90
54082;DHT22;39986;50.770;0.266;2023-04-29T12:40:15;22.00;99.90
54082;DHT22;39986;50.770;0.266;2023-04-29T12:42:42;22.30;99.90
54082;DHT22;39986;50.770;0.266;2023-04-29T12:45:24;21.00;99.90
54082;DHT22;39986;50.770;0.266;2023-04-29T12:47:50;20.80;99.90
54082;DHT22;39986;50.770;0.266;2023-04-29T12:50:16;20.90;99.90
54082;DHT22;39986;50.770;0.266;2023-04-29T12:52:41;21.60;99.90
54082;DHT22;39986;50.770;0.266;2023-04-29T12:55:07;22.40;99.90
54082;DHT22;39986;50.770;0.266;2023-04-29T12:57:32;23.10;99.90
54082;DHT22;39986;50.770;0.266;2023-04-29T12:59:58;23.70;99.90
54082;DHT22;39986;50.770;0.266;2023-04-29T13:02:24;23.50;99.90
54082;DHT22;39986;50.770;0.266;2023-04-29T13:04:50;23.10;99.90
54082;DHT22;39986;50.770;0.266;2023-04-29T13:07:15;23.50;99.90
54082;DHT22;39986;50.770;0.266;2023-04-29T13:09:42;23.20;99.90
54082;DHT22;39986;50.770;0.266;2023-04-29T13:12:08;24.20;99.90
54082;DHT22;39986;50.770;0.266;2023-04-29T13:14:33;24.60;99.90
54082;DHT22;39986;50.770;0.266;2023-04-29T13:16:59;23.20;99.90
54082;DHT22;39986;50.770;0.266;2023-04-29T13:19:24;22.70;99.90
54082;DHT22;39986;50.770;0.266;2023-04-29T13:21:50;21.60;99.90
54082;DHT22;39986;50.770;0.266;2023-04-29T13:24:17;21.50;99.90
54082;DHT22;39986;50.770;0.266;2023-04-29T13:26:44;22.10;99.90
54082;DHT22;39986;50.770;0.266;2023-04-29T13:29:10;22.30;99.90
54082;DHT22;39986;50.770;0.266;2023-04-29T13:31:35;23.40;99.90
54082;DHT22;39986;50.770;0.266;2023-04-29T13:34:01;24.20;99.90
54082;DHT22;39986;50.770;0.266;2023-04-29T13:36:27;25.30;99.90
54082;DHT22;39986;50.770;0.266;2023-04-29T13:38:52;25.00;99.80
54082;DHT22;39986;50.770;0.266;2023-04-29T13:41:18;23.50;99.90
54082;DHT22;39986;50.770;0.266;2023-04-29T13:43:43;23.10;99.90
54082;DHT22;39986;50.770;0.266;2023-04-29T13:46:09;22.80;99.90
54082;DHT22;39986;50.770;0.266;2023-04-29T13:48:34;23.50;99.90
54082;DHT22;39986;50.770;0.266;2023-04-29T13:51:00;25.20;99.10
54082;DHT22;39986;50.770;0.266;2023-04-29T13:53:26;24.10;99.90
54082;DHT22;39986;50.770;0.266;2023-04-29T13:55:51;23.70;99.90
54082;DHT22;39986;50.770;0.266;2023-04-29T13:58:17;24.00;99.90
54082;DHT22;39986;50.770;0.266;2023-04-29T14:00:42;24.40;99.90
54082;DHT22;39986;50.770;0.266;2023-04-29T14:03:08;25.20;99.30
54082;DHT22;39986;50.770;0.266;2023-04-29T14:05:34;25.80;97.70
54082;DHT22;39986;50.770;0.266;2023-04-29T14:07:59;26.10;97.30
54082;DHT22;39986;50.770;0.266;2023-04-29T14:10:25;27.00;95.70
54082;DHT22;39986;50.770;0.266;2023-04-29T14:12:50;26.40;94.90
54082;DHT22;39986;50.770;0.266;2023-04-29T14:15:16;25.70;96.10
54082;DHT22;39986;50.770;0.266;2023-04-29T14:17:41;24.80;97.10
54082;DHT22;39986;50.770;0.266;2023-04-29T14:20:07;25.00;97.40
54082;DHT22;39986;50.770;0.266;2023-04-29T14:22:33;25.60;96.80
54082;DHT22;39986;50.770;0.266;2023-04-29T14:24:58;26.50;95.60
54082;DHT22;39986;50.770;0.266;2023-04-29T14:27:24;26.10;95.80
54082;DHT22;39986;50.770;0.266;2023-04-29T14:29:49;26.10;94.70
54082;DHT22;39986;50.770;0.266;2023-04-29T14:32:15;25.90;96.30
54082;DHT22;39986;50.770;0.266;2023-04-29T14:34:40;27.70;93.00
54082;DHT22;39986;50.770;0.266;2023-04-29T14:37:06;26.90;93.20
54082;DHT22;39986;50.770;0.266;2023-04-29T14:39:32;26.00;94.00
54082;DHT22;39986;50.770;0.266;2023-04-29T14:41:58;25.80;94.60
54082;DHT22;39986;50.770;0.266;2023-04-29T14:44:23;26.30;94.10
54082;DHT22;39986;50.770;0.266;2023-04-29T14:46:49;27.60;92.70
54082;DHT22;39986;50.770;0.266;2023-04-29T14:49:14;27.50;91.90
54082;DHT22;39986;50.770;0.266;2023-04-29T14:51:40;27.30;92.30
54082;DHT22;39986;50.770;0.266;2023-04-29T14:54:05;27.10;92.20
54082;DHT22;39986;50.770;0.266;2023-04-29T14:56:31;26.60;92.40
54082;DHT22;39986;50.770;0.266;2023-04-29T14:58:57;26.20;93.00
54082;DHT22;39986;50.770;0.266;2023-04-29T15:01:22;24.90;95.20
54082;DHT22;39986;50.770;0.266;2023-04-29T15:03:48;24.30;96.80
54082;DHT22;39986;50.770;0.266;2023-04-29T15:06:13;22.70;98.90
54082;DHT22;39986;50.770;0.266;2023-04-29T15:08:39;22.20;99.90
54082;DHT22;39986;50.770;0.266;2023-04-29T15:11:05;21.50;99.90
54082;DHT22;39986;50.770;0.266;2023-04-29T15:13:30;19.10;99.90
54082;DHT22;39986;50.770;0.266;2023-04-29T15:15:56;17.00;99.90
54082;DHT22;39986;50.770;0.266;2023-04-29T15:18:21;16.10;99.90
54082;DHT22;39986;50.770;0.266;2023-04-29T15:20:48;15.80;99.90
54082;DHT22;39986;50.770;0.266;2023-04-29T15:23:14;15.70;99.90
54082;DHT22;39986;50.770;0.266;2023-04-29T15:25:40;15.40;99.90
54082;DHT22;39986;50.770;0.266;2023-04-29T15:28:05;15.20;99.90
54082;DHT22;39986;50.770;0.266;2023-04-29T15:30:31;15.10;99.90
54082;DHT22;39986;50.770;0.266;2023-04-29T15:32:56;14.90;99.90
54082;DHT22;39986;50.770;0.266;2023-04-29T15:35:22;15.00;99.90
54082;DHT22;39986;50.770;0.266;2023-04-29T15:37:48;14.80;99.90
54082;DHT22;39986;50.770;0.266;2023-04-29T15:40:13;15.00;99.90
54082;DHT22;39986;50.770;0.266;2023-04-29T15:42:40;14.90;99.90
54082;DHT22;39986;50.770;0.266;2023-04-29T15:45:06;15.00;99.90
54082;DHT22;39986;50.770;0.266;2023-04-29T15:47:34;14.50;99.90
54082;DHT22;39986;50.770;0.266;2023-04-29T15:50:00;14.00;99.90
54082;DHT22;39986;50.770;0.266;2023-04-29T15:52:25;13.70;99.90